createdAt,value
2023-10-23T00:02:19.724Z,95386.00
2023-10-23T00:06:22.599Z,95383.00
2023-10-23T00:10:25.446Z,95383.00
2023-10-23T00:14:29.641Z,95379.00
2023-10-23T00:18:32.516Z,95378.00
2023-10-23T00:22:35.412Z,95381.00
2023-10-23T00:26:38.281Z,95385.00
2023-10-23T00:30:42.564Z,95381.00
2023-10-23T00:34:45.434Z,95383.00
2023-10-23T00:38:48.332Z,95401.00
2023-10-23T00:42:52.011Z,95395.00
2023-10-23T00:46:57.019Z,95387.00
2023-10-23T00:51:01.232Z,95404.00
2023-10-23T00:55:04.810Z,95404.00
2023-10-23T00:59:07.698Z,95391.00
2023-10-23T01:03:12.080Z,95393.00
2023-10-23T01:07:15.028Z,95396.00
2023-10-23T01:11:17.948Z,95406.00
2023-10-23T01:15:20.990Z,95409.00
2023-10-23T01:19:26.244Z,95430.00
2023-10-23T01:23:34.098Z,95417.00
2023-10-23T01:27:38.349Z,95402.00
2023-10-23T01:31:41.267Z,95408.00
2023-10-23T01:35:44.176Z,95417.00
2023-10-23T01:39:47.134Z,95410.00
2023-10-23T01:43:51.425Z,95424.00
2023-10-23T01:47:54.367Z,95418.00
2023-10-23T01:51:57.257Z,95410.00
2023-10-23T01:56:07.708Z,95401.00
2023-10-23T02:00:12.693Z,95402.00
2023-10-23T02:04:17.030Z,95405.00
2023-10-23T02:08:24.981Z,95386.00
2023-10-23T02:12:27.956Z,95394.00
2023-10-23T02:16:32.197Z,95406.00
2023-10-23T02:20:35.744Z,95398.00
2023-10-23T02:24:38.837Z,95396.00
2023-10-23T02:28:41.934Z,95390.00
2023-10-23T02:32:46.679Z,95384.00
2023-10-23T02:36:49.680Z,95379.00
2023-10-23T02:40:53.580Z,95374.00
2023-10-23T02:44:56.566Z,95382.00
2023-10-23T02:49:01.458Z,95379.00
2023-10-23T02:53:06.610Z,95368.00
2023-10-23T02:57:09.467Z,95380.00
2023-10-23T03:01:16.778Z,95383.00
2023-10-23T03:05:21.150Z,95392.00
2023-10-23T03:09:24.475Z,95397.00
2023-10-23T03:13:27.328Z,95392.00
2023-10-23T03:17:30.816Z,95398.00
2023-10-23T03:21:35.068Z,95389.00
2023-10-23T03:25:37.933Z,95389.00
2023-10-23T03:29:43.121Z,95393.00
2023-10-23T03:33:47.315Z,95392.00
2023-10-23T03:37:51.622Z,95400.00
2023-10-23T03:41:55.468Z,95399.00
2023-10-23T03:45:58.493Z,95404.00
2023-10-23T03:50:01.410Z,95392.00
2023-10-23T03:54:06.065Z,95393.00
2023-10-23T03:58:08.932Z,95397.00
2023-10-23T04:02:11.816Z,95396.00
2023-10-23T04:06:14.664Z,95396.00
2023-10-23T04:10:18.875Z,95393.00
2023-10-23T04:14:21.690Z,95389.00
2023-10-23T04:18:25.512Z,95372.00
2023-10-23T04:22:29.118Z,95362.00
2023-10-23T04:26:35.112Z,95371.00
2023-10-23T04:30:40.453Z,95373.00
2023-10-23T04:34:43.334Z,95365.00
2023-10-23T04:38:46.164Z,95362.00
2023-10-23T04:42:50.416Z,95365.00
2023-10-23T04:46:53.330Z,95359.00
2023-10-23T04:51:00.687Z,95356.00
2023-10-23T04:55:04.031Z,95356.00
2023-10-23T04:59:08.977Z,95364.00
2023-10-23T05:03:12.228Z,95361.00
2023-10-23T05:07:16.080Z,95356.00
2023-10-23T05:11:18.929Z,95349.00
2023-10-23T05:15:23.551Z,95353.00
2023-10-23T05:19:26.398Z,95353.00
2023-10-23T05:23:29.222Z,95358.00
2023-10-23T05:27:32.085Z,95338.00
2023-10-23T05:31:36.324Z,95352.00
2023-10-23T05:35:39.182Z,95348.00
2023-10-23T05:39:42.363Z,95355.00
2023-10-23T05:43:46.148Z,95349.00
2023-10-23T05:47:50.377Z,95344.00
2023-10-23T05:51:53.325Z,95353.00
2023-10-23T05:55:56.302Z,95350.00
2023-10-23T05:59:59.163Z,95351.00
2023-10-23T06:04:05.420Z,95370.00
2023-10-23T06:08:08.285Z,95376.00
2023-10-23T06:12:12.662Z,95382.00
2023-10-23T06:16:15.604Z,95385.00
2023-10-23T06:20:19.898Z,95387.00
2023-10-23T06:24:22.783Z,95387.00
2023-10-23T06:28:25.601Z,95380.00
2023-10-23T06:32:28.447Z,95376.00
2023-10-23T06:36:33.718Z,95377.00
2023-10-23T06:40:36.579Z,95387.00
2023-10-23T06:44:39.601Z,95386.00
2023-10-23T06:48:45.657Z,95381.00
2023-10-23T06:52:49.994Z,95379.00
2023-10-23T06:56:52.850Z,95382.00
2023-10-23T07:00:55.745Z,95387.00
2023-10-23T07:04:58.624Z,95376.00
2023-10-23T07:09:02.933Z,95383.00
2023-10-23T07:13:18.980Z,95386.00
2023-10-23T07:17:24.687Z,95400.00
2023-10-23T07:21:28.619Z,95403.00
2023-10-23T07:25:32.945Z,95414.00
2023-10-23T07:29:35.796Z,95399.00
2023-10-23T07:33:39.048Z,95390.00
2023-10-23T07:37:42.015Z,95380.00
2023-10-23T07:41:46.852Z,95370.00
2023-10-23T07:45:54.575Z,95358.00
2023-10-23T07:50:00.405Z,95368.00
2023-10-23T07:54:04.319Z,95360.00
2023-10-23T07:58:08.586Z,95360.00
2023-10-23T08:02:11.508Z,95354.00
2023-10-23T08:06:14.696Z,95340.00
2023-10-23T08:10:17.725Z,95356.00
2023-10-23T08:14:21.946Z,95353.00
2023-10-23T08:18:37.377Z,95366.00
2023-10-23T08:22:41.621Z,95356.00
2023-10-23T08:26:44.483Z,95364.00
2023-10-23T08:30:48.703Z,95362.00
2023-10-23T08:34:53.529Z,95359.00
2023-10-23T08:38:56.625Z,95355.00
2023-10-23T08:42:59.555Z,95356.00
2023-10-23T08:47:04.254Z,95344.00
2023-10-23T08:51:09.279Z,95342.00
2023-10-23T08:55:14.060Z,95337.00
2023-10-23T08:59:16.915Z,95322.00
2023-10-23T09:04:02.478Z,95309.00
2023-10-23T09:07:45.817Z,95308.00
2023-10-23T09:11:50.227Z,95297.00
2023-10-23T09:15:53.193Z,95307.00
2023-10-23T09:19:57.556Z,95307.00
2023-10-23T09:24:01.615Z,95303.00
2023-10-23T09:28:12.495Z,95309.00
2023-10-23T09:32:15.870Z,95306.00
2023-10-23T09:36:21.846Z,95308.00
2023-10-23T09:40:25.347Z,95329.00
2023-10-23T09:44:29.064Z,95324.00
2023-10-23T09:48:32.955Z,95325.00
2023-10-23T09:52:38.611Z,95310.00
2023-10-23T09:56:42.321Z,95309.00
2023-10-23T10:00:48.485Z,95301.00
2023-10-23T10:04:58.484Z,95311.00
2023-10-23T10:09:05.428Z,95304.00
2023-10-23T10:13:08.590Z,95306.00
2023-10-23T10:17:12.485Z,95318.00
2023-10-23T10:21:21.109Z,95302.00
2023-10-23T10:25:28.711Z,95297.00
2023-10-23T10:29:32.771Z,95284.00
2023-10-23T10:34:27.004Z,95273.00
2023-10-23T10:38:04.335Z,95268.00
2023-10-23T10:42:10.468Z,95249.00
2023-10-23T10:46:18.965Z,95251.00
2023-10-23T10:50:36.925Z,95238.00
2023-10-23T10:54:40.212Z,95247.00
2023-10-23T10:58:45.428Z,95251.00
2023-10-23T11:02:48.724Z,95245.00
2023-10-23T11:06:52.073Z,95244.00
2023-10-23T11:10:55.282Z,95238.00
2023-10-23T11:15:00.550Z,95234.00
2023-10-23T11:19:03.615Z,95227.00
2023-10-23T11:23:06.551Z,95227.00
2023-10-23T11:27:09.706Z,95223.00
2023-10-23T11:31:13.999Z,95213.00
2023-10-23T11:35:16.980Z,95217.00
2023-10-23T11:39:20.109Z,95198.00
2023-10-23T11:43:23.004Z,95203.00
2023-10-23T11:47:27.348Z,95194.00
2023-10-23T11:51:30.371Z,95188.00
2023-10-23T11:55:33.900Z,95185.00
2023-10-23T11:59:42.016Z,95195.00
2023-10-23T12:03:46.280Z,95192.00
2023-10-23T12:07:50.779Z,95183.00
2023-10-23T12:11:53.647Z,95173.00
2023-10-23T12:15:56.521Z,95155.00
2023-10-23T12:20:00.759Z,95162.00
2023-10-23T12:24:03.719Z,95170.00
2023-10-23T12:28:07.148Z,95171.00
2023-10-23T12:32:10.318Z,95186.00
2023-10-23T12:36:34.449Z,95174.00
2023-10-23T12:40:37.792Z,95160.00
2023-10-23T12:44:40.753Z,95160.00
2023-10-23T12:48:44.990Z,95177.00
2023-10-23T12:52:49.694Z,95174.00
2023-10-23T12:56:53.526Z,95160.00
2023-10-23T13:00:56.442Z,95144.00
2023-10-23T13:05:00.959Z,95128.00
2023-10-23T13:09:05.523Z,95121.00
2023-10-23T13:13:08.361Z,95139.00
2023-10-23T13:17:11.545Z,95140.00
2023-10-23T13:21:33.095Z,95122.00
2023-10-23T13:25:41.520Z,95131.00
2023-10-23T13:29:44.799Z,95123.00
2023-10-23T13:33:48.062Z,95111.00
2023-10-23T13:37:50.967Z,95104.00
2023-10-23T13:41:55.172Z,95100.00
2023-10-23T13:45:58.040Z,95092.00
2023-10-23T13:50:00.911Z,95075.00
2023-10-23T13:54:03.769Z,95062.00
2023-10-23T13:58:08.038Z,95049.00
2023-10-23T14:02:10.912Z,95042.00
2023-10-23T14:06:13.761Z,95036.00
2023-10-23T14:10:21.270Z,95046.00
2023-10-23T14:14:25.811Z,95036.00
2023-10-23T14:18:28.678Z,95044.00
2023-10-23T14:22:31.552Z,95045.00
2023-10-23T14:26:34.483Z,95041.00
2023-10-23T14:30:38.668Z,95033.00
2023-10-23T14:34:41.827Z,95031.00
2023-10-23T14:38:45.002Z,95017.00
2023-10-23T14:42:47.821Z,95007.00
2023-10-23T14:46:52.536Z,95003.00
2023-10-23T14:50:55.826Z,94997.00
2023-10-23T14:55:00.373Z,94996.00
2023-10-23T14:59:03.241Z,94990.00
2023-10-23T15:03:07.465Z,94977.00
2023-10-23T15:07:10.339Z,94963.00
2023-10-23T15:11:14.854Z,94966.00
2023-10-23T15:15:22.355Z,94969.00
2023-10-23T15:19:26.967Z,94964.00
2023-10-23T15:23:29.877Z,94966.00
2023-10-23T15:27:32.763Z,94964.00
2023-10-23T15:31:35.691Z,94950.00
2023-10-23T15:35:39.940Z,94957.00
2023-10-23T15:39:44.027Z,94948.00
2023-10-23T15:43:48.589Z,94945.00
2023-10-23T15:47:53.794Z,94925.00
2023-10-23T15:51:58.093Z,94933.00
2023-10-23T15:56:02.139Z,94920.00
2023-10-23T16:00:05.641Z,94908.00
2023-10-23T16:04:09.890Z,94912.00
2023-10-23T16:08:14.465Z,94906.00
2023-10-23T16:12:17.284Z,94908.00
2023-10-23T16:16:20.261Z,94898.00
2023-10-23T16:20:23.205Z,94901.00
2023-10-23T16:24:27.415Z,94896.00
2023-10-23T16:28:30.360Z,94899.00
2023-10-23T16:32:33.405Z,94889.00
2023-10-23T16:36:36.308Z,94881.00
2023-10-23T16:40:40.578Z,94887.00
2023-10-23T16:44:55.398Z,94895.00
2023-10-23T16:48:59.332Z,94890.00
2023-10-23T16:53:03.446Z,94877.00
2023-10-23T16:57:10.232Z,94883.00
2023-10-23T17:01:17.033Z,94878.00
2023-10-23T17:05:21.639Z,94888.00
2023-10-23T17:09:24.493Z,94880.00
2023-10-23T17:13:28.876Z,94880.00
2023-10-23T17:17:32.594Z,94872.00
2023-10-23T17:21:35.449Z,94870.00
2023-10-23T17:25:42.188Z,94865.00
2023-10-23T17:29:46.455Z,94872.00
2023-10-23T17:33:49.642Z,94863.00
2023-10-23T17:37:53.354Z,94853.00
2023-10-23T17:41:56.219Z,94852.00
2023-10-23T17:46:03.152Z,94850.00
2023-10-23T17:50:07.460Z,94837.00
2023-10-23T17:54:11.272Z,94846.00
2023-10-23T17:58:14.132Z,94835.00
2023-10-23T18:02:18.461Z,94837.00
2023-10-23T18:06:21.351Z,94829.00
2023-10-23T18:10:24.361Z,94828.00
2023-10-23T18:14:27.253Z,94832.00
2023-10-23T18:18:31.444Z,94814.00
2023-10-23T18:22:34.369Z,94810.00
2023-10-23T18:26:37.244Z,94797.00
2023-10-23T18:30:40.113Z,94801.00
2023-10-23T18:34:44.418Z,94811.00
2023-10-23T18:38:48.030Z,94799.00
2023-10-23T18:42:57.229Z,94798.00
2023-10-23T18:47:00.194Z,94794.00
2023-10-23T18:51:04.486Z,94796.00
2023-10-23T18:55:08.542Z,94789.00
2023-10-23T18:59:12.507Z,94795.00
2023-10-23T19:03:15.485Z,94789.00
2023-10-23T19:07:21.235Z,94781.00
2023-10-23T19:11:24.875Z,94786.00
2023-10-23T19:15:27.730Z,94787.00
2023-10-23T19:19:31.703Z,94787.00
2023-10-23T19:23:36.286Z,94770.00
2023-10-23T19:33:21.709Z,94769.00
2023-10-23T19:37:25.087Z,94778.00
2023-10-23T19:41:43.526Z,94781.00
2023-10-23T19:45:46.925Z,94777.00
2023-10-23T19:49:50.300Z,94754.00
2023-10-23T19:53:54.710Z,94764.00
2023-10-23T19:57:59.869Z,94778.00
2023-10-23T20:02:04.454Z,94774.00
2023-10-23T20:06:09.308Z,94775.00
2023-10-23T20:10:14.635Z,94777.00
2023-10-23T20:14:18.912Z,94781.00
2023-10-23T20:18:22.036Z,94776.00
2023-10-23T20:22:24.820Z,94774.00
2023-10-23T20:26:27.635Z,94778.00
2023-10-23T20:30:35.200Z,94789.00
2023-10-23T20:34:53.814Z,94798.00
2023-10-23T20:39:41.970Z,94784.00
2023-10-23T20:44:07.650Z,94789.00
2023-10-23T20:48:12.569Z,94794.00
2023-10-23T20:52:15.350Z,94780.00
2023-10-23T20:56:18.107Z,94777.00
2023-10-23T21:00:21.109Z,94768.00
2023-10-23T21:04:25.244Z,94763.00
2023-10-23T21:08:28.057Z,94769.00
2023-10-23T21:12:30.890Z,94763.00
2023-10-23T21:16:33.752Z,94769.00
2023-10-23T21:20:37.929Z,94778.00
2023-10-23T21:24:40.704Z,94775.00
2023-10-23T21:28:47.642Z,94765.00
2023-10-23T21:32:50.921Z,94773.00
2023-10-23T21:36:55.049Z,94781.00
2023-10-23T21:40:57.839Z,94770.00
2023-10-23T21:45:00.682Z,94771.00
2023-10-23T21:49:05.558Z,94782.00
2023-10-23T21:53:10.437Z,94772.00
2023-10-23T21:57:20.145Z,94775.00
2023-10-23T22:01:29.096Z,94777.00
2023-10-23T22:05:32.823Z,94755.00
2023-10-23T22:09:38.412Z,94760.00
2023-10-23T22:13:42.285Z,94753.00
2023-10-23T22:17:45.406Z,94750.00
2023-10-23T22:21:48.208Z,94762.00
2023-10-23T22:25:53.497Z,94772.00
2023-10-23T22:29:56.251Z,94769.00
2023-10-23T22:33:59.006Z,94776.00
2023-10-23T22:38:06.961Z,94777.00
2023-10-23T22:42:14.130Z,94779.00
2023-10-23T22:46:16.992Z,94782.00
2023-10-23T22:50:20.824Z,94794.00
2023-10-23T22:54:24.242Z,94799.00
2023-10-23T22:58:31.095Z,94807.00
2023-10-23T23:02:34.738Z,94837.00
2023-10-23T23:06:40.292Z,94845.00
2023-10-23T23:10:44.078Z,94844.00
2023-10-23T23:14:50.091Z,94853.00
2023-10-23T23:18:55.156Z,94864.00
2023-10-23T23:22:58.058Z,94862.00
2023-10-23T23:27:00.835Z,94859.00
2023-10-23T23:31:04.941Z,94857.00
2023-10-23T23:35:08.177Z,94847.00
2023-10-23T23:39:10.953Z,94830.00
2023-10-23T23:43:13.726Z,94823.00
2023-10-23T23:47:17.828Z,94827.00
2023-10-23T23:51:20.591Z,94831.00
2023-10-23T23:55:23.361Z,94829.00
2023-10-23T23:59:41.550Z,94825.00
